KGGW/GGW METAR and TAF weather

Enter ICAO airport designator
Station Type Date Time Source
KGGW METAR 2019/05/21 19:53 UTC NOAA

KGGW 211953Z AUTO 10017KT 10SM FEW036 FEW050 OVC070 12/03 A2993 RMK AO2 SLP143 T01170033


Station Type Date Time Source
KGGW Decoded METAR 2019/05/21 19:53 UTC NOAA

GLASGOW INTERNATIONAL AIRPORT , MT, United States (KGGW) 48-13N 106-37W 693M
May 21, 2019 - 03:53 PM EDT / 2019.05.21 1953 UTC
Wind: from the E (100 degrees) at 20 MPH (17 KT):0
Visibility: 10 mile(s):0
Sky conditions: overcast
Temperature: 53.1 F (11.7 C)
Dew Point: 37.9 F (3.3 C)
Relative Humidity: 56%
Pressure (altimeter): 29.93 in. Hg (1013 hPa)
ob: KGGW 211953Z AUTO 10017KT 10SM FEW036 FEW050 OVC070 12/03 A2993 RMK AO2 SLP143 T01170033
cycle: 20

Station Type Date Time Source
KGGW TAF 2019/05/21 18:22 UTC NOAA

TAF KGGW 211720Z 2118/2218 11017KT P6SM VCSH SCT015 OVC025
FM212300 11016KT P6SM OVC040
FM221500 03013G21KT P6SM BKN100

Example: see airport list